createdAt,value
2019-06-01T00:02:09.924Z,13.80
2019-06-01T00:04:35.963Z,13.80
2019-06-01T00:07:02.054Z,13.80
2019-06-01T00:09:28.299Z,13.80
2019-06-01T00:11:54.380Z,13.80
2019-06-01T00:14:21.168Z,13.80
2019-06-01T00:16:48.003Z,13.70
2019-06-01T00:19:14.133Z,13.70
2019-06-01T00:21:41.173Z,13.70
2019-06-01T00:24:06.357Z,13.70
2019-06-01T00:26:32.408Z,13.00
2019-06-01T00:28:58.488Z,13.70
2019-06-01T00:31:24.547Z,13.50
2019-06-01T00:33:51.758Z,13.50
2019-06-01T00:36:16.760Z,13.70
2019-06-01T00:38:43.889Z,13.60
2019-06-01T00:41:09.630Z,13.30
2019-06-01T00:43:36.481Z,13.60
2019-06-01T00:46:02.728Z,13.60
2019-06-01T00:48:28.834Z,13.60
2019-06-01T00:50:54.879Z,13.60
2019-06-01T00:53:20.987Z,13.60
2019-06-01T00:55:47.785Z,13.60
2019-06-01T00:58:13.891Z,13.20
2019-06-01T01:00:43.681Z,13.60
2019-06-01T01:03:06.089Z,13.60
2019-06-01T01:05:32.160Z,13.60
2019-06-01T01:07:58.262Z,13.60
2019-06-01T01:10:25.107Z,13.80
2019-06-01T01:12:51.180Z,13.70
2019-06-01T01:15:18.069Z,13.90
2019-06-01T01:17:44.170Z,13.80
2019-06-01T01:20:11.964Z,14.00
2019-06-01T01:22:38.056Z,14.00
2019-06-01T01:25:04.134Z,14.10
2019-06-01T01:27:30.174Z,14.10
2019-06-01T01:29:57.056Z,14.20
2019-06-01T01:32:22.387Z,14.20
2019-06-01T01:34:49.493Z,14.20
2019-06-01T01:37:15.356Z,14.20
2019-06-01T01:39:41.436Z,14.20
2019-06-01T01:42:07.594Z,14.20
2019-06-01T01:44:34.444Z,14.40
2019-06-01T01:47:00.508Z,14.30
2019-06-01T01:49:26.644Z,14.40
2019-06-01T01:51:52.923Z,14.40
2019-06-01T01:54:18.875Z,14.60
2019-06-01T01:56:44.972Z,14.40
2019-06-01T01:59:11.071Z,14.40
2019-06-01T02:01:37.175Z,14.40
2019-06-01T02:04:03.386Z,14.40
2019-06-01T02:06:29.587Z,14.50
2019-06-01T02:08:55.538Z,14.30
2019-06-01T02:11:21.606Z,14.60
2019-06-01T02:13:47.700Z,14.60
2019-06-01T02:16:13.760Z,14.60
2019-06-01T02:18:39.858Z,14.60
2019-06-01T02:21:05.911Z,14.60
2019-06-01T02:23:31.993Z,14.00
2019-06-01T02:25:58.894Z,14.50
2019-06-01T02:28:24.240Z,14.50
2019-06-01T02:30:51.061Z,14.50
2019-06-01T02:33:17.135Z,14.50
2019-06-01T02:35:43.259Z,14.50
2019-06-01T02:38:09.367Z,14.50
2019-06-01T02:40:35.529Z,14.40
2019-06-01T02:43:03.388Z,14.60
2019-06-01T02:45:27.754Z,14.60
2019-06-01T02:47:55.241Z,14.60
2019-06-01T02:50:20.809Z,14.60
2019-06-01T02:52:47.620Z,14.50
2019-06-01T02:55:13.740Z,14.50
2019-06-01T02:57:39.773Z,14.50
2019-06-01T03:00:06.746Z,14.50
2019-06-01T03:02:32.042Z,14.50
2019-06-01T03:04:59.050Z,14.40
2019-06-01T03:07:24.376Z,14.50
2019-06-01T03:09:50.510Z,14.60
2019-06-01T03:12:16.534Z,14.50
2019-06-01T03:14:42.622Z,14.60
2019-06-01T03:17:09.807Z,14.60
2019-06-01T03:19:34.843Z,14.60
2019-06-01T03:22:03.778Z,14.60
2019-06-01T03:24:27.022Z,14.70
2019-06-01T03:26:53.072Z,14.70
2019-06-01T03:29:19.169Z,14.60
2019-06-01T03:31:45.303Z,14.70
2019-06-01T03:34:11.607Z,14.70
2019-06-01T03:36:38.237Z,14.80
2019-06-01T03:39:04.261Z,14.80
2019-06-01T03:41:31.085Z,14.80
2019-06-01T03:43:57.122Z,14.80
2019-06-01T03:46:23.169Z,14.80
2019-06-01T03:48:49.959Z,14.90
2019-06-01T03:51:15.999Z,14.90
2019-06-01T03:53:42.061Z,14.90
2019-06-01T03:56:09.047Z,14.90
2019-06-01T03:58:35.018Z,14.90
2019-06-01T04:01:01.123Z,15.00
2019-06-01T04:03:27.218Z,14.90
2019-06-01T04:05:53.309Z,14.90
2019-06-01T04:08:20.083Z,14.80
2019-06-01T04:10:46.157Z,14.60
2019-06-01T04:13:12.186Z,14.80
2019-06-01T04:15:39.095Z,14.70
2019-06-01T04:18:06.073Z,14.30
2019-06-01T04:20:31.362Z,14.70
2019-06-01T04:22:57.428Z,14.60
2019-06-01T04:25:23.477Z,14.60
2019-06-01T04:27:49.531Z,14.60
2019-06-01T04:30:15.633Z,14.60
2019-06-01T04:32:49.799Z,14.60
2019-06-01T04:35:09.004Z,14.70
2019-06-01T04:37:33.995Z,14.70
2019-06-01T04:40:00.748Z,14.80
2019-06-01T04:42:26.853Z,14.70
2019-06-01T04:44:52.973Z,14.90
2019-06-01T04:47:19.116Z,14.90
2019-06-01T04:49:45.168Z,14.90
2019-06-01T04:52:11.981Z,15.00
2019-06-01T04:54:37.416Z,14.90
2019-06-01T04:57:04.664Z,15.10
2019-06-01T04:59:29.632Z,15.10
2019-06-01T05:01:56.450Z,15.20
2019-06-01T05:04:22.491Z,15.20
2019-06-01T05:06:49.349Z,15.30
2019-06-01T05:09:15.837Z,15.40
2019-06-01T05:11:41.596Z,15.40
2019-06-01T05:14:07.648Z,15.40
2019-06-01T05:16:33.711Z,15.50
2019-06-01T05:18:59.752Z,15.60
2019-06-01T05:21:25.820Z,15.90
2019-06-01T05:23:51.874Z,15.80
2019-06-01T05:26:17.967Z,15.80
2019-06-01T05:28:44.061Z,15.90
2019-06-01T05:31:16.931Z,16.00
2019-06-01T05:33:37.684Z,16.00
2019-06-01T05:36:02.320Z,16.10
2019-06-01T05:38:28.383Z,16.10
2019-06-01T05:40:55.177Z,16.30
2019-06-01T05:43:21.442Z,16.30
2019-06-01T05:45:47.368Z,16.40
2019-06-01T05:48:20.778Z,16.80
2019-06-01T05:50:40.323Z,16.70
2019-06-01T05:53:06.397Z,17.00
2019-06-01T05:55:32.425Z,17.30
2019-06-01T05:57:58.505Z,17.60
2019-06-01T06:00:25.361Z,17.90
2019-06-01T06:02:51.462Z,17.90
2019-06-01T06:05:18.757Z,17.70
2019-06-01T06:07:44.392Z,17.60
2019-06-01T06:10:10.424Z,17.70
2019-06-01T06:12:36.514Z,17.80
2019-06-01T06:15:02.571Z,18.00
2019-06-01T06:17:29.390Z,18.10
2019-06-01T06:19:56.152Z,18.30
2019-06-01T06:22:22.416Z,18.20
2019-06-01T06:24:49.046Z,18.50
2019-06-01T06:27:15.139Z,18.50
2019-06-01T06:29:41.967Z,18.70
2019-06-01T06:32:09.290Z,18.70
2019-06-01T06:34:34.297Z,19.40
2019-06-01T06:37:00.349Z,20.70
2019-06-01T06:39:26.456Z,21.70
2019-06-01T06:41:53.251Z,24.10
2019-06-01T06:44:20.521Z,24.10
2019-06-01T06:46:45.436Z,25.00
2019-06-01T06:49:11.566Z,25.70
2019-06-01T06:51:37.642Z,25.80
2019-06-01T06:54:03.728Z,26.60
2019-06-01T06:56:29.767Z,27.20
2019-06-01T06:58:55.871Z,27.50
2019-06-01T07:01:22.886Z,28.00
2019-06-01T07:03:48.106Z,28.80
2019-06-01T07:06:14.167Z,28.90
2019-06-01T07:08:40.277Z,28.80
2019-06-01T07:11:06.355Z,29.20
2019-06-01T07:13:32.416Z,29.40
2019-06-01T07:15:58.493Z,29.70
2019-06-01T07:18:25.763Z,30.20
2019-06-01T07:20:52.558Z,30.20
2019-06-01T07:23:19.518Z,29.90
2019-06-01T07:25:44.754Z,30.10
2019-06-01T07:28:10.805Z,30.20
2019-06-01T07:30:49.889Z,30.30
2019-06-01T07:33:03.834Z,30.30
2019-06-01T07:35:29.910Z,30.70
2019-06-01T07:37:56.002Z,30.80
2019-06-01T07:40:22.978Z,31.20
2019-06-01T07:42:49.035Z,31.90
2019-06-01T07:45:15.239Z,31.50
2019-06-01T07:47:41.289Z,31.40
2019-06-01T07:50:08.165Z,32.00
2019-06-01T07:52:34.216Z,32.00
2019-06-01T07:55:00.292Z,32.00
2019-06-01T07:57:27.781Z,31.70
2019-06-01T07:59:53.380Z,31.10
2019-06-01T08:02:23.300Z,31.50
2019-06-01T08:04:53.534Z,32.00
2019-06-01T08:07:13.254Z,32.00
2019-06-01T08:09:39.348Z,32.60
2019-06-01T08:12:05.490Z,33.10
2019-06-01T08:14:32.769Z,33.70
2019-06-01T08:16:58.461Z,33.40
2019-06-01T08:19:25.863Z,33.30
2019-06-01T08:21:50.718Z,33.10
2019-06-01T08:24:16.956Z,33.00
2019-06-01T08:26:43.792Z,32.40
2019-06-01T08:29:10.706Z,32.60
2019-06-01T08:31:36.822Z,32.60
2019-06-01T08:34:02.954Z,32.90
2019-06-01T08:36:29.485Z,32.50
2019-06-01T08:38:55.884Z,32.30
2019-06-01T08:41:23.246Z,32.30
2019-06-01T08:43:48.100Z,32.50
2019-06-01T08:46:14.218Z,31.50
2019-06-01T08:48:40.284Z,31.60
2019-06-01T08:51:06.399Z,31.00
2019-06-01T08:53:32.443Z,32.30
2019-06-01T08:55:58.520Z,31.40
2019-06-01T08:58:24.598Z,30.40
2019-06-01T09:00:50.734Z,29.80
2019-06-01T09:03:16.789Z,30.70
2019-06-01T09:05:42.870Z,30.10
2019-06-01T09:08:08.985Z,30.20
2019-06-01T09:10:35.568Z,30.60
2019-06-01T09:13:01.236Z,31.20
2019-06-01T09:15:29.593Z,31.10
2019-06-01T09:17:54.316Z,31.10
2019-06-01T09:20:20.506Z,30.50
2019-06-01T09:22:48.134Z,32.10
2019-06-01T09:25:12.792Z,33.00
2019-06-01T09:27:38.928Z,32.70
2019-06-01T09:30:05.056Z,32.00
2019-06-01T09:32:32.216Z,33.00
2019-06-01T09:34:57.371Z,33.60
2019-06-01T09:37:23.429Z,33.30
2019-06-01T09:39:50.257Z,33.70
2019-06-01T09:42:16.364Z,33.80
2019-06-01T09:44:42.473Z,33.30
2019-06-01T09:47:08.541Z,33.80
2019-06-01T09:49:35.723Z,33.00
2019-06-01T09:52:00.834Z,32.30
2019-06-01T09:54:29.446Z,32.90
2019-06-01T09:56:54.637Z,33.10
2019-06-01T09:59:20.751Z,33.10
2019-06-01T10:01:47.251Z,33.30
2019-06-01T10:04:12.985Z,33.10
2019-06-01T10:06:39.086Z,33.00
2019-06-01T10:09:05.165Z,32.50
2019-06-01T10:11:32.479Z,32.00
2019-06-01T10:13:57.408Z,31.40
2019-06-01T10:16:23.526Z,30.60
2019-06-01T10:18:49.588Z,30.10
2019-06-01T10:21:15.708Z,29.70
2019-06-01T10:23:42.758Z,29.50
2019-06-01T10:26:07.888Z,29.60
2019-06-01T10:28:33.971Z,28.80
2019-06-01T10:31:01.082Z,29.10
2019-06-01T10:33:27.122Z,29.00
2019-06-01T10:35:53.162Z,29.10
2019-06-01T10:38:19.328Z,28.90
2019-06-01T10:40:45.401Z,28.90
2019-06-01T10:43:11.508Z,28.70
2019-06-01T10:45:37.780Z,28.60
2019-06-01T10:48:03.765Z,28.50
2019-06-01T10:50:29.862Z,29.00
2019-06-01T10:52:55.957Z,29.00
2019-06-01T10:55:22.035Z,29.00
2019-06-01T10:57:48.233Z,28.70
2019-06-01T11:00:14.366Z,28.50
2019-06-01T11:02:40.824Z,28.30
2019-06-01T11:05:06.678Z,28.50
2019-06-01T11:07:34.567Z,28.40
2019-06-01T11:09:59.621Z,28.40
2019-06-01T11:12:25.723Z,28.10
2019-06-01T11:14:51.798Z,28.10
2019-06-01T11:17:18.650Z,28.30
2019-06-01T11:19:44.747Z,28.30
2019-06-01T11:22:10.864Z,28.60
2019-06-01T11:24:37.414Z,28.70
2019-06-01T11:27:03.135Z,29.00
2019-06-01T11:29:29.969Z,28.70
2019-06-01T11:31:56.066Z,28.70
2019-06-01T11:34:22.210Z,28.60
2019-06-01T11:37:04.530Z,28.20
2019-06-01T11:39:14.436Z,28.20
2019-06-01T11:41:40.724Z,28.50
2019-06-01T11:44:06.684Z,28.20
2019-06-01T11:46:32.813Z,28.20
2019-06-01T11:48:58.909Z,28.40
2019-06-01T11:51:24.973Z,28.70
2019-06-01T11:53:51.819Z,27.80
2019-06-01T11:56:17.926Z,27.70
2019-06-01T11:58:44.116Z,27.20
2019-06-01T12:01:10.193Z,27.50
2019-06-01T12:03:37.550Z,27.60
2019-06-01T12:06:02.500Z,27.70
2019-06-01T12:08:28.685Z,27.10
2019-06-01T12:10:54.845Z,27.00
2019-06-01T12:13:20.961Z,26.20
2019-06-01T12:15:47.059Z,27.50
2019-06-01T12:18:13.193Z,27.40
2019-06-01T12:20:39.256Z,27.30
2019-06-01T12:23:05.397Z,27.20
2019-06-01T12:25:31.572Z,27.10
2019-06-01T12:27:57.716Z,27.30
2019-06-01T12:30:23.839Z,27.10
2019-06-01T12:32:49.939Z,27.10
2019-06-01T12:35:16.067Z,27.30
2019-06-01T12:38:01.059Z,27.10
2019-06-01T12:40:08.304Z,26.80
2019-06-01T12:42:34.403Z,26.90
2019-06-01T12:45:00.519Z,26.80
2019-06-01T12:47:26.639Z,26.60
2019-06-01T12:49:52.822Z,26.40
2019-06-01T12:52:18.929Z,26.60
2019-06-01T12:54:45.030Z,26.80
2019-06-01T12:57:11.159Z,26.70
2019-06-01T12:59:37.362Z,26.50
2019-06-01T13:02:03.466Z,26.60
2019-06-01T13:04:29.565Z,26.90
2019-06-01T13:06:55.682Z,27.00
2019-06-01T13:09:21.773Z,26.90
2019-06-01T13:11:47.877Z,26.80
2019-06-01T13:14:13.966Z,26.70
2019-06-01T13:16:43.980Z,26.50
2019-06-01T13:19:07.050Z,26.50
2019-06-01T13:21:33.141Z,25.20
2019-06-01T13:23:59.242Z,26.30
2019-06-01T13:26:25.360Z,26.10
2019-06-01T13:28:52.544Z,26.00
2019-06-01T13:31:17.637Z,25.60
2019-06-01T13:33:44.507Z,25.80
2019-06-01T13:36:10.649Z,25.80
2019-06-01T13:38:37.492Z,25.80
2019-06-01T13:41:03.798Z,25.80
2019-06-01T13:43:29.929Z,25.80
2019-06-01T13:45:56.844Z,26.30
2019-06-01T13:48:23.032Z,26.20
2019-06-01T13:50:49.850Z,26.40
2019-06-01T13:53:15.368Z,26.50
2019-06-01T13:55:41.490Z,26.50
2019-06-01T13:58:07.637Z,26.20
2019-06-01T14:00:33.813Z,26.00
2019-06-01T14:03:00.674Z,25.20
2019-06-01T14:05:27.499Z,24.80
2019-06-01T14:07:53.642Z,24.80
2019-06-01T14:10:19.786Z,24.40
2019-06-01T14:12:47.235Z,24.60
2019-06-01T14:15:12.032Z,24.80
2019-06-01T14:17:38.187Z,24.70
2019-06-01T14:20:05.048Z,24.50
2019-06-01T14:22:31.176Z,24.40
2019-06-01T14:25:10.449Z,24.30
2019-06-01T14:27:24.090Z,24.30
2019-06-01T14:29:50.327Z,24.20
2019-06-01T14:32:16.253Z,24.20
2019-06-01T14:34:42.338Z,24.20
2019-06-01T14:37:08.419Z,24.30
2019-06-01T14:39:34.518Z,24.30
2019-06-01T14:42:00.689Z,24.10
2019-06-01T14:44:26.770Z,24.10
2019-06-01T14:47:01.712Z,24.10
2019-06-01T14:49:19.181Z,24.10
2019-06-01T14:51:47.377Z,24.10
2019-06-01T14:54:12.094Z,24.10
2019-06-01T14:56:38.145Z,23.80
2019-06-01T14:59:04.220Z,23.90
2019-06-01T15:01:32.963Z,23.80
2019-06-01T15:03:56.608Z,23.70
2019-06-01T15:06:22.697Z,22.80
2019-06-01T15:09:07.684Z,23.80
2019-06-01T15:11:15.672Z,23.50
2019-06-01T15:13:42.494Z,23.60
2019-06-01T15:16:08.579Z,23.60
2019-06-01T15:18:34.651Z,23.60
2019-06-01T15:21:02.175Z,23.60
2019-06-01T15:23:27.607Z,23.60
2019-06-01T15:25:54.408Z,23.40
2019-06-01T15:28:19.900Z,23.50
2019-06-01T15:30:46.014Z,23.30
2019-06-01T15:33:12.098Z,23.20
2019-06-01T15:35:38.134Z,23.40
2019-06-01T15:38:04.697Z,23.30
2019-06-01T15:40:30.389Z,23.30
2019-06-01T15:42:57.356Z,23.10
2019-06-01T15:45:22.709Z,23.20
2019-06-01T15:47:48.771Z,23.20
2019-06-01T15:50:14.876Z,23.10
2019-06-01T15:52:40.982Z,21.70
2019-06-01T15:55:07.087Z,23.00
2019-06-01T15:57:33.164Z,23.10
2019-06-01T15:59:59.264Z,23.10
2019-06-01T16:02:25.353Z,23.10
2019-06-01T16:04:52.912Z,22.90
2019-06-01T16:07:18.333Z,22.90
2019-06-01T16:09:44.455Z,22.70
2019-06-01T16:12:10.542Z,22.70
2019-06-01T16:14:37.424Z,22.60
2019-06-01T16:17:04.774Z,22.60
2019-06-01T16:19:29.655Z,22.50
2019-06-01T16:21:55.874Z,22.50
2019-06-01T16:24:22.024Z,22.40
2019-06-01T16:26:48.135Z,22.30
2019-06-01T16:29:14.194Z,22.40
2019-06-01T16:31:40.326Z,22.20
2019-06-01T16:34:07.163Z,22.10
2019-06-01T16:36:33.956Z,22.00
2019-06-01T16:39:03.599Z,22.00
2019-06-01T16:41:26.279Z,22.10
2019-06-01T16:43:52.391Z,22.10
2019-06-01T16:46:18.470Z,21.90
2019-06-01T16:48:44.585Z,21.90
2019-06-01T16:51:10.722Z,21.70
2019-06-01T16:53:37.555Z,21.50
2019-06-01T16:56:04.059Z,21.80
2019-06-01T16:58:29.799Z,21.30
2019-06-01T17:00:56.357Z,20.80
2019-06-01T17:03:22.907Z,21.10
2019-06-01T17:05:49.039Z,21.10
2019-06-01T17:08:15.106Z,21.10
2019-06-01T17:10:41.287Z,20.00
2019-06-01T17:13:09.023Z,20.80
2019-06-01T17:15:33.660Z,20.70
2019-06-01T17:18:03.558Z,20.70
2019-06-01T17:20:26.060Z,20.80
2019-06-01T17:22:52.137Z,20.60
2019-06-01T17:25:18.206Z,20.50
2019-06-01T17:27:44.346Z,20.60
2019-06-01T17:30:12.133Z,20.80
2019-06-01T17:32:37.473Z,20.80
2019-06-01T17:35:05.015Z,20.70
2019-06-01T17:37:29.758Z,20.70
2019-06-01T17:39:55.875Z,19.50
2019-06-01T17:42:22.040Z,20.60
2019-06-01T17:44:48.178Z,20.50
2019-06-01T17:47:14.372Z,20.50
2019-06-01T17:49:40.545Z,20.50
2019-06-01T17:52:07.782Z,20.30
2019-06-01T17:54:32.992Z,20.20
2019-06-01T17:56:59.193Z,20.10
2019-06-01T17:59:25.350Z,19.80
2019-06-01T18:01:51.557Z,19.90
2019-06-01T18:04:17.715Z,19.80
2019-06-01T18:06:43.938Z,19.80
2019-06-01T18:09:10.318Z,19.80
2019-06-01T18:11:36.360Z,19.60
2019-06-01T18:14:02.599Z,18.80
2019-06-01T18:16:28.751Z,19.60
2019-06-01T18:18:54.875Z,19.50
2019-06-01T18:21:21.039Z,18.80
2019-06-01T18:23:49.224Z,19.40
2019-06-01T18:26:13.606Z,19.40
2019-06-01T18:28:39.817Z,19.50
2019-06-01T18:31:06.752Z,18.60
2019-06-01T18:33:32.296Z,19.40
2019-06-01T18:35:58.527Z,19.40
2019-06-01T18:38:24.724Z,19.40
2019-06-01T18:40:50.927Z,19.50
2019-06-01T18:43:17.122Z,19.40
2019-06-01T18:45:43.443Z,19.40
2019-06-01T18:48:10.145Z,19.40
2019-06-01T18:50:36.670Z,19.40
2019-06-01T18:53:03.885Z,19.30
2019-06-01T18:55:29.090Z,18.70
2019-06-01T18:57:55.242Z,19.30
2019-06-01T19:00:22.157Z,19.30
2019-06-01T19:02:48.331Z,19.30
2019-06-01T19:05:15.566Z,19.30
2019-06-01T19:07:41.404Z,19.60
2019-06-01T19:10:07.582Z,19.20
2019-06-01T19:12:33.823Z,19.20
2019-06-01T19:14:59.993Z,19.10
2019-06-01T19:17:26.147Z,18.90
2019-06-01T19:19:52.227Z,19.00
2019-06-01T19:22:18.316Z,19.10
2019-06-01T19:24:44.389Z,18.90
2019-06-01T19:27:10.753Z,18.80
2019-06-01T19:29:36.721Z,18.80
2019-06-01T19:32:02.825Z,18.80
2019-06-01T19:34:28.910Z,18.70
2019-06-01T19:36:54.986Z,18.60
2019-06-01T19:39:21.119Z,18.50
2019-06-01T19:41:47.197Z,18.40
2019-06-01T19:44:13.628Z,18.40
2019-06-01T19:46:39.354Z,18.30
2019-06-01T19:49:06.255Z,18.20
2019-06-01T19:51:32.348Z,18.20
2019-06-01T19:53:58.466Z,18.10
2019-06-01T19:56:25.273Z,17.90
2019-06-01T19:58:52.196Z,17.90
2019-06-01T20:01:18.442Z,17.80
2019-06-01T20:03:44.533Z,17.80
2019-06-01T20:06:10.694Z,17.80
2019-06-01T20:08:36.831Z,17.80
2019-06-01T20:11:02.922Z,17.80
2019-06-01T20:13:29.791Z,17.80
2019-06-01T20:15:55.879Z,17.80
2019-06-01T20:18:22.993Z,17.60
2019-06-01T20:20:48.115Z,17.60
2019-06-01T20:23:15.289Z,17.30
2019-06-01T20:25:40.325Z,17.50
2019-06-01T20:28:06.429Z,17.30
2019-06-01T20:30:32.635Z,17.40
2019-06-01T20:32:58.734Z,17.00
2019-06-01T20:35:24.840Z,17.30
2019-06-01T20:37:51.703Z,17.30
2019-06-01T20:40:18.415Z,17.20
2019-06-01T20:42:43.977Z,17.20
2019-06-01T20:45:10.150Z,17.30
2019-06-01T20:47:36.247Z,17.20
2019-06-01T20:50:02.401Z,17.20
2019-06-01T20:52:28.477Z,16.90
2019-06-01T20:54:54.594Z,17.10
2019-06-01T20:57:21.497Z,17.20
2019-06-01T20:59:47.044Z,17.10
2019-06-01T21:02:14.065Z,17.10
2019-06-01T21:04:40.218Z,17.10
2019-06-01T21:07:07.058Z,17.00
2019-06-01T21:09:33.191Z,16.90
2019-06-01T21:12:00.067Z,16.90
2019-06-01T21:14:26.198Z,16.80
2019-06-01T21:16:52.288Z,16.90
2019-06-01T21:19:18.458Z,16.90
2019-06-01T21:21:44.525Z,16.80
2019-06-01T21:24:10.688Z,16.70
2019-06-01T21:26:36.874Z,16.70
2019-06-01T21:29:03.042Z,16.80
2019-06-01T21:31:29.083Z,16.70
2019-06-01T21:33:55.187Z,16.70
2019-06-01T21:36:21.507Z,16.60
2019-06-01T21:38:47.505Z,16.60
2019-06-01T21:41:13.905Z,16.60
2019-06-01T21:43:39.994Z,16.60
2019-06-01T21:46:06.060Z,16.60
2019-06-01T21:48:39.090Z,15.90
2019-06-01T21:51:05.165Z,16.60
2019-06-01T21:53:31.250Z,16.50
2019-06-01T21:55:57.315Z,16.50
2019-06-01T21:58:24.442Z,16.50
2019-06-01T22:00:49.549Z,16.50
2019-06-01T22:03:16.721Z,16.60
2019-06-01T22:05:41.831Z,16.40
2019-06-01T22:08:07.904Z,16.50
2019-06-01T22:10:34.043Z,16.40
2019-06-01T22:13:15.128Z,16.40
2019-06-01T22:15:26.232Z,16.40
2019-06-01T22:17:53.012Z,16.30
2019-06-01T22:20:19.925Z,16.30
2019-06-01T22:22:45.874Z,16.30
2019-06-01T22:25:11.979Z,15.80
2019-06-01T22:27:38.025Z,16.30
2019-06-01T22:30:04.105Z,16.20
2019-06-01T22:32:31.814Z,16.10
2019-06-01T22:34:56.574Z,16.10
2019-06-01T22:37:23.663Z,16.10
2019-06-01T22:39:48.749Z,15.70
2019-06-01T22:42:14.836Z,16.00
2019-06-01T22:44:41.644Z,16.00
2019-06-01T22:47:07.730Z,16.00
2019-06-01T22:49:33.804Z,15.90
2019-06-01T22:51:59.892Z,15.90
2019-06-01T22:54:27.148Z,15.90
2019-06-01T22:56:52.123Z,15.80
2019-06-01T22:59:20.325Z,15.80
2019-06-01T23:01:45.135Z,15.10
2019-06-01T23:04:11.195Z,15.70
2019-06-01T23:06:37.344Z,15.00
2019-06-01T23:09:04.198Z,15.60
2019-06-01T23:11:30.287Z,14.30
2019-06-01T23:13:56.369Z,15.70
2019-06-01T23:16:23.530Z,15.60
2019-06-01T23:18:48.561Z,15.60
2019-06-01T23:21:14.658Z,15.60
2019-06-01T23:23:40.704Z,15.50
2019-06-01T23:26:06.778Z,15.10
2019-06-01T23:28:33.579Z,15.40
2019-06-01T23:30:59.701Z,15.30
2019-06-01T23:33:26.965Z,15.40
2019-06-01T23:35:51.901Z,14.60
2019-06-01T23:38:18.028Z,15.30
2019-06-01T23:40:44.101Z,15.20
2019-06-01T23:43:10.107Z,15.50
2019-06-01T23:45:36.181Z,15.30
2019-06-01T23:48:03.000Z,15.20
2019-06-01T23:50:29.215Z,15.10
2019-06-01T23:52:55.875Z,15.20
2019-06-01T23:55:21.944Z,15.20
2019-06-01T23:57:48.782Z,15.10
